| time (UTC) | temp F | wind direction | speed knots | gust knots | rain 1hr in | rain 24hr in | rain mn in | humidity % | barometer mb |
| 20260507112605 | 52 | 0 | 4.3 | 8.7 | 0.00 | 0.00 | 0.00 | 55 | 1018.0 |
| 20260507112105 | 52 | 359 | 6.1 | 8.7 | 0.00 | 0.00 | 0.00 | 55 | 1018.0 |
| 20260507111605 | 52 | 9 | 6.1 | 13.0 | 0.00 | 0.00 | 0.00 | 54 | 1018.0 |
| 20260507111105 | 52 | 8 | 6.1 | 10.4 | 0.00 | 0.00 | 0.00 | 54 | 1017.9 |
| 20260507110605 | 52 | 22 | 5.2 | 12.2 | 0.00 | 0.00 | 0.00 | 54 | 1017.9 |
| 20260507110105 | 52 | 359 | 6.1 | 14.8 | 0.00 | 0.00 | 0.00 | 54 | 1017.8 |
| 20260507105605 | 52 | 8 | 7.8 | 13.0 | 0.00 | 0.00 | 0.00 | 54 | 1017.7 |
| 20260507105105 | 52 | 0 | 7.0 | 12.2 | 0.00 | 0.00 | 0.00 | 53 | 1017.8 |
| 20260507104105 | 52 | 1 | 6.1 | 13.0 | 0.00 | 0.00 | 0.00 | 53 | 1017.7 |
| 20260507103604 | 52 | 0 | 7.8 | 14.8 | 0.00 | 0.00 | 0.00 | 53 | 1017.7 |
| 20260507103105 | 52 | 7 | 7.0 | 14.8 | 0.00 | 0.00 | 0.00 | 53 | 1017.6 |
| 20260507102605 | 52 | 0 | 7.0 | 13.0 | 0.00 | 0.00 | 0.00 | 53 | 1017.6 |
| 20260507102105 | 52 | 9 | 6.1 | 13.0 | 0.00 | 0.00 | 0.00 | 53 | 1017.5 |
| 20260507101104 | 52 | 4 | 7.8 | 12.2 | 0.00 | 0.00 | 0.00 | 53 | 1017.6 |
| 20260507100604 | 52 | 18 | 7.0 | 10.4 | 0.00 | 0.00 | 0.00 | 52 | 1017.5 |
| 20260507100104 | 53 | 27 | 5.2 | 12.2 | 0.00 | 0.00 | 0.00 | 52 | 1017.4 |
| 20260507095605 | 53 | 359 | 6.1 | 10.4 | 0.00 | 0.00 | 0.00 | 52 | 1017.5 |
| 20260507095105 | 53 | 9 | 7.0 | 13.0 | 0.00 | 0.00 | 0.00 | 52 | 1017.4 |
| 20260507094605 | 53 | 0 | 6.1 | 14.8 | 0.00 | 0.00 | 0.00 | 52 | 1017.5 |
| 20260507094105 | 53 | 359 | 4.3 | 8.7 | 0.00 | 0.00 | 0.00 | 51 | 1017.5 |
| 20260507093605 | 53 | 1 | 5.2 | 10.4 | 0.00 | 0.00 | 0.00 | 51 | 1017.5 |
| 20260507092605 | 53 | 11 | 5.2 | 10.4 | 0.00 | 0.00 | 0.00 | 51 | 1017.4 |
| 20260507092105 | 53 | 0 | 6.1 | 13.9 | 0.00 | 0.00 | 0.00 | 50 | 1017.2 |
| 20260507091605 | 53 | 15 | 6.1 | 11.3 | 0.00 | 0.00 | 0.00 | 51 | 1017.1 |
| 20260507091105 | 53 | 4 | 5.2 | 11.3 | 0.00 | 0.00 | 0.00 | 51 | 1017.0 |
| 20260507090604 | 53 | 359 | 4.3 | 8.7 | 0.00 | 0.00 | 0.00 | 51 | 1016.9 |
| 20260507090105 | 54 | 359 | 4.3 | 7.8 | 0.00 | 0.00 | 0.00 | 50 | 1016.9 |
| 20260507085605 | 54 | 18 | 5.2 | 10.4 | 0.00 | 0.00 | 0.00 | 50 | 1016.8 |
| 20260507085105 | 54 | 359 | 4.3 | 10.4 | 0.00 | 0.00 | 0.00 | 50 | 1016.7 |
| 20260507084606 | 54 | 10 | 5.2 | 10.4 | 0.00 | 0.00 | 0.00 | 50 | 1016.6 |
| 20260507084104 | 54 | 8 | 6.1 | 10.4 | 0.00 | 0.00 | 0.00 | 49 | 1016.5 |
| 20260507083105 | 54 | 359 | 7.0 | 13.0 | 0.00 | 0.00 | 0.00 | 49 | 1016.4 |
| 20260507082605 | 54 | 359 | 6.1 | 14.8 | 0.00 | 0.00 | 0.00 | 49 | 1016.3 |
| 20260507082105 | 54 | 359 | 6.1 | 11.3 | 0.00 | 0.00 | 0.00 | 48 | 1016.3 |
| 20260507081105 | 55 | 6 | 7.8 | 14.8 | 0.00 | 0.00 | 0.00 | 48 | 1016.2 |
| 20260507080604 | 55 | 1 | 6.1 | 11.3 | 0.00 | 0.00 | 0.00 | 48 | 1016.0 |
| 20260507080105 | 55 | 5 | 5.2 | 12.2 | 0.00 | 0.00 | 0.00 | 48 | 1016.0 |
| 20260507075605 | 55 | 0 | 6.1 | 10.4 | 0.00 | 0.00 | 0.00 | 48 | 1015.8 |
| 20260507075105 | 55 | 4 | 4.3 | 10.4 | 0.00 | 0.00 | 0.00 | 48 | 1015.8 |
| 20260507074605 | 55 | 2 | 6.1 | 11.3 | 0.00 | 0.00 | 0.00 | 48 | 1015.6 |
| 20260507074105 | 55 | 3 | 6.1 | 11.3 | 0.00 | 0.00 | 0.00 | 47 | 1015.5 |
| 20260507073605 | 55 | 40 | 7.8 | 13.0 | 0.00 | 0.00 | 0.00 | 47 | 1015.4 |
| 20260507073105 | 55 | 8 | 6.1 | 12.2 | 0.00 | 0.00 | 0.00 | 47 | 1015.3 |
| 20260507072605 | 56 | 6 | 7.0 | 11.3 | 0.00 | 0.00 | 0.00 | 47 | 1015.2 |
| 20260507072105 | 56 | 7 | 6.1 | 11.3 | 0.00 | 0.00 | 0.00 | 47 | 1015.1 |
| 20260507071605 | 56 | 359 | 7.8 | 13.0 | 0.00 | 0.00 | 0.00 | 46 | 1015.1 |
| 20260507070604 | 56 | 21 | 7.8 | 14.8 | 0.00 | 0.00 | 0.00 | 45 | 1015.0 |
| 20260507070105 | 57 | 359 | 7.0 | 12.2 | 0.00 | 0.00 | 0.00 | 45 | 1015.0 |
| 20260507065605 | 57 | 4 | 5.2 | 11.3 | 0.00 | 0.00 | 0.00 | 45 | 1014.9 |
| 20260507064604 | 57 | 3 | 7.0 | 17.4 | 0.00 | 0.00 | 0.00 | 44 | 1014.9 |
| 20260507064104 | 57 | 3 | 5.2 | 14.8 | 0.00 | 0.00 | 0.00 | 44 | 1014.8 |
| 20260507063104 | 58 | 359 | 5.2 | 14.8 | 0.00 | 0.00 | 0.00 | 44 | 1014.8 |
| 20260507062604 | 58 | 12 | 7.8 | 14.8 | 0.00 | 0.00 | 0.00 | 42 | 1014.7 |
| 20260507061605 | 58 | 9 | 7.8 | 17.4 | 0.00 | 0.00 | 0.00 | 42 | 1014.7 |
| 20260507060604 | 59 | 1 | 8.7 | 20.9 | 0.00 | 0.00 | 0.00 | 40 | 1014.6 |
| 20260507060105 | 59 | 6 | 10.4 | 22.6 | 0.00 | 0.00 | 0.00 | 40 | 1014.6 |
| 20260507055604 | 60 | 359 | 10.4 | 19.1 | 0.00 | 0.00 | 0.00 | 40 | 1014.6 |
| 20260507055104 | 60 | 5 | 11.3 | 20.0 | 0.00 | 0.00 | 0.00 | 39 | 1014.5 |
| 20260507054604 | 61 | 10 | 8.7 | 18.2 | 0.00 | 0.00 | 0.00 | 39 | 1014.3 |
| 20260507053605 | 61 | 359 | 7.8 | 17.4 | 0.00 | 0.00 | 0.00 | 39 | 1014.3 |
| 20260507053105 | 61 | 9 | 7.0 | 14.8 | 0.00 | 0.00 | 0.00 | 38 | 1014.2 |
| 20260507052605 | 61 | 6 | 12.2 | 24.3 | 0.00 | 0.00 | 0.00 | 37 | 1014.0 |
| 20260507052105 | 61 | 9 | 11.3 | 18.2 | 0.00 | 0.00 | 0.00 | 37 | 1014.1 |
| 20260507051605 | 61 | 18 | 10.4 | 25.2 | 0.00 | 0.00 | 0.00 | 38 | 1014.1 |
| 20260507051108 | 61 | 4 | 8.7 | 22.6 | 0.00 | 0.00 | 0.00 | 38 | 1014.0 |
| 20260507050605 | 61 | 13 | 11.3 | 24.3 | 0.00 | 0.00 | 0.00 | 38 | 1014.0 |
| 20260507050104 | 62 | 359 | 7.8 | 15.6 | 0.00 | 0.00 | 0.00 | 37 | 1013.9 |
| 20260507045604 | 62 | 359 | 11.3 | 17.4 | 0.00 | 0.00 | 0.00 | 37 | 1013.9 |
| 20260507045105 | 62 | 2 | 7.8 | 15.6 | 0.00 | 0.00 | 0.00 | 38 | 1013.9 |
| 20260507044104 | 61 | 8 | 4.3 | 11.3 | 0.00 | 0.00 | 0.00 | 40 | 1013.8 |
| 20260507043605 | 61 | 2 | 7.8 | 18.2 | 0.00 | 0.00 | 0.00 | 38 | 1013.8 |
| 20260507043105 | 61 | 6 | 12.2 | 21.7 | 0.00 | 0.00 | 0.00 | 37 | 1013.9 |
| 20260507042604 | 61 | 8 | 12.2 | 21.7 | 0.00 | 0.00 | 0.00 | 36 | 1013.8 |
| 20260507042105 | 61 | 8 | 11.3 | 18.2 | 0.00 | 0.00 | 0.00 | 36 | 1013.7 |
| 20260507041605 | 61 | 21 | 7.0 | 13.0 | 0.00 | 0.00 | 0.00 | 36 | 1013.8 |
| 20260507041104 | 61 | 11 | 8.7 | 17.4 | 0.00 | 0.00 | 0.00 | 37 | 1013.7 |
| 20260507040605 | 62 | 4 | 10.4 | 20.0 | 0.00 | 0.00 | 0.00 | 36 | 1013.7 |
| 20260507040105 | 62 | 3 | 10.4 | 20.9 | 0.00 | 0.00 | 0.00 | 36 | 1013.5 |
| 20260507035104 | 62 | 26 | 11.3 | 22.6 | 0.00 | 0.00 | 0.00 | 35 | 1013.4 |
| 20260507034605 | 62 | 4 | 13.0 | 24.3 | 0.00 | 0.00 | 0.00 | 34 | 1013.5 |
| 20260507034105 | 62 | 19 | 10.4 | 26.1 | 0.00 | 0.00 | 0.00 | 37 | 1013.2 |
| 20260507033605 | 62 | 9 | 6.1 | 12.2 | 0.00 | 0.00 | 0.00 | 37 | 1013.1 |
| 20260507032604 | 62 | 2 | 10.4 | 17.4 | 0.00 | 0.00 | 0.00 | 35 | 1013.1 |
| 20260507032105 | 62 | 2 | 9.6 | 17.4 | 0.00 | 0.00 | 0.00 | 35 | 1013.0 |
| 20260507031605 | 62 | 359 | 7.0 | 15.6 | 0.00 | 0.00 | 0.00 | 34 | 1013.0 |
| 20260507031105 | 63 | 2 | 8.7 | 17.4 | 0.00 | 0.00 | 0.00 | 34 | 1013.0 |
| 20260507030604 | 62 | 359 | 8.7 | 18.2 | 0.00 | 0.00 | 0.00 | 34 | 1012.9 |
| 20260507025605 | 62 | 4 | 8.7 | 14.8 | 0.00 | 0.00 | 0.00 | 35 | 1012.8 |
| 20260507025104 | 62 | 24 | 6.1 | 14.8 | 0.00 | 0.00 | 0.00 | 34 | 1012.8 |
| 20260507024604 | 62 | 28 | 10.4 | 25.2 | 0.00 | 0.00 | 0.00 | 31 | 1013.0 |
| 20260507024105 | 62 | 51 | 12.2 | 27.8 | 0.00 | 0.00 | 0.00 | 33 | 1013.1 |
| 20260507023604 | 62 | 17 | 11.3 | 21.7 | 0.00 | 0.00 | 0.00 | 33 | 1013.2 |
| 20260507023104 | 62 | 4 | 14.8 | 21.7 | 0.00 | 0.00 | 0.00 | 31 | 1013.2 |
| 20260507022604 | 62 | 31 | 11.3 | 20.0 | 0.00 | 0.00 | 0.00 | 32 | 1013.2 |
| 20260507022104 | 62 | 10 | 10.4 | 15.6 | 0.00 | 0.00 | 0.00 | 33 | 1013.3 |
| 20260507021605 | 62 | 9 | 7.0 | 17.4 | 0.00 | 0.00 | 0.00 | 34 | 1013.3 |
| 20260507021104 | 62 | 3 | 10.4 | 18.2 | 0.00 | 0.00 | 0.00 | 32 | 1013.3 |
| 20260507020604 | 62 | 3 | 7.8 | 21.7 | 0.00 | 0.00 | 0.00 | 35 | 1013.3 |
| 20260507020104 | 62 | 4 | 7.8 | 21.7 | 0.00 | 0.00 | 0.00 | 34 | 1013.3 |
| 20260507015604 | 62 | 16 | 8.7 | 21.7 | 0.00 | 0.00 | 0.00 | 35 | 1013.5 |
| 20260507015105 | 61 | 7 | 7.8 | 15.6 | 0.00 | 0.00 | 0.00 | 36 | 1013.4 |
| 20260507014605 | 61 | 2 | 7.0 | 15.6 | 0.00 | 0.00 | 0.00 | 37 | 1013.4 |
| 20260507014104 | 61 | 6 | 8.7 | 17.4 | 0.00 | 0.00 | 0.00 | 40 | 1013.5 |
| 20260507013605 | 61 | 5 | 7.8 | 17.4 | 0.00 | 0.00 | 0.00 | 42 | 1013.5 |
| 20260507013105 | 60 | 19 | 8.7 | 20.0 | 0.00 | 0.00 | 0.00 | 43 | 1013.5 |
| 20260507012605 | 60 | 17 | 6.1 | 11.3 | 0.00 | 0.00 | 0.00 | 46 | 1013.6 |
| 20260507012105 | 60 | 10 | 7.8 | 13.9 | 0.00 | 0.00 | 0.00 | 44 | 1013.6 |
| 20260507011604 | 59 | 4 | 10.4 | 18.2 | 0.00 | 0.00 | 0.00 | 45 | 1013.6 |
| 20260507011104 | 60 | 359 | 11.3 | 20.0 | 0.00 | 0.00 | 0.00 | 45 | 1013.6 |
| 20260507010604 | 59 | 11 | 13.9 | 20.9 | 0.00 | 0.00 | 0.00 | 51 | 1013.6 |
| 20260507010104 | 59 | 51 | 7.8 | 13.0 | 0.00 | 0.00 | 0.00 | 58 | 1013.6 |
| 20260507005604 | 59 | 1 | 6.1 | 13.9 | 0.00 | 0.00 | 0.00 | 58 | 1013.5 |
| 20260507004104 | 59 | 26 | 6.1 | 10.4 | 0.00 | 0.00 | 0.00 | 62 | 1013.4 |
| 20260507003605 | 59 | 359 | 6.1 | 18.2 | 0.00 | 0.00 | 0.00 | 62 | 1013.5 |
| 20260507003104 | 59 | 12 | 10.4 | 21.7 | 0.00 | 0.00 | 0.00 | 61 | 1013.5 |
| 20260507002604 | 60 | 8 | 11.3 | 22.6 | 0.00 | 0.00 | 0.00 | 62 | 1013.5 |
| 20260507002104 | 61 | 14 | 13.9 | 22.6 | 0.00 | 0.00 | 0.00 | 60 | 1013.5 |
| 20260507001604 | 61 | 5 | 12.2 | 24.3 | 0.00 | 0.00 | 0.00 | 63 | 1013.3 |
| 20260507000604 | 61 | 4 | 12.2 | 21.7 | 0.00 | 0.00 | 0.00 | 65 | 1012.9 |
| 20260507000104 | 60 | 2 | 6.1 | 11.3 | 0.00 | 0.00 | 0.00 | 68 | 1013.0 |
| 20260506235604 | 59 | 359 | 4.3 | 10.4 | 0.00 | 0.00 | 0.00 | 71 | 1013.1 |
| 20260506235104 | 59 | 14 | 1.7 | 5.2 | 0.00 | 0.00 | 0.00 | 71 | 1013.0 |
| 20260506234604 | 58 | 359 | 0.0 | 2.6 | 0.00 | 0.00 | 0.00 | 71 | 1013.0 |
| 20260506234104 | 58 | 124 | 0.0 | 0.0 | 0.00 | 0.00 | 0.00 | 71 | 1013.0 |
| 20260506233604 | 58 | 93 | 0.9 | 2.6 | 0.00 | 0.00 | 0.00 | 71 | 1012.9 |
| 20260506233104 | 57 | 125 | 0.0 | 4.3 | 0.00 | 0.00 | 0.00 | 72 | 1013.0 |
| 20260506232604 | 57 | 359 | 0.0 | 1.7 | 0.00 | 0.00 | 0.00 | 72 | 1013.0 |
| 20260506232104 | 57 | 359 | 0.0 | 0.0 | 0.00 | 0.00 | 0.00 | 73 | 1013.0 |
| 20260506231604 | 56 | 359 | 0.0 | 1.7 | 0.00 | 0.00 | 0.00 | 73 | 1013.0 |
| 20260506231104 | 56 | 359 | 0.9 | 1.7 | 0.00 | 0.00 | 0.00 | 73 | 1013.1 |
| 20260506230104 | 55 | 359 | 0.0 | 0.9 | 0.00 | 0.00 | 0.00 | 75 | 1013.1 |
| 20260506224604 | 54 | 359 | 0.0 | 2.6 | 0.00 | 0.00 | 0.00 | 77 | 1013.1 |
| 20260506224104 | 53 | 1 | 1.7 | 2.6 | 0.00 | 0.00 | 0.00 | 78 | 1013.2 |
| 20260506223604 | 53 | 44 | 0.0 | 0.9 | 0.00 | 0.00 | 0.00 | 80 | 1013.2 |
| 20260506223104 | 53 | 122 | 0.0 | 0.0 | 0.00 | 0.00 | 0.00 | 81 | 1013.2 |
| 20260506222604 | 52 | 113 | 0.0 | 0.0 | 0.00 | 0.00 | 0.00 | 82 | 1013.1 |
| 20260506222104 | 52 | 118 | 0.0 | 0.0 | 0.00 | 0.00 | 0.00 | 82 | 1013.0 |
| 20260506221604 | 52 | 81 | 0.0 | 0.0 | 0.00 | 0.00 | 0.00 | 82 | 1013.0 |
| 20260506221104 | 51 | 127 | 0.0 | 0.0 | 0.00 | 0.00 | 0.00 | 83 | 1013.0 |
| 20260506220604 | 51 | 123 | 0.0 | 0.0 | 0.00 | 0.00 | 0.00 | 83 | 1013.0 |
| 20260506220104 | 51 | 119 | 0.0 | 0.0 | 0.00 | 0.00 | 0.00 | 83 | 1013.1 |
| 20260506215604 | 51 | 114 | 0.0 | 0.0 | 0.00 | 0.00 | 0.00 | 83 | 1013.0 |
| 20260506215104 | 50 | 111 | 0.0 | 0.0 | 0.00 | 0.00 | 0.00 | 83 | 1012.9 |
| 20260506214604 | 50 | 134 | 0.0 | 0.0 | 0.00 | 0.00 | 0.00 | 84 | 1012.8 |
| 20260506214104 | 50 | 119 | 0.0 | 0.0 | 0.00 | 0.00 | 0.00 | 83 | 1012.8 |
| 20260506213604 | 50 | 115 | 0.0 | 0.0 | 0.00 | 0.00 | 0.00 | 83 | 1012.8 |
| 20260506213104 | 50 | 136 | 0.0 | 0.0 | 0.00 | 0.00 | 0.00 | 83 | 1012.7 |
| 20260506212604 | 50 | 136 | 0.0 | 0.0 | 0.00 | 0.00 | 0.00 | 83 | 1012.7 |
| 20260506212104 | 50 | 135 | 0.0 | 0.0 | 0.00 | 0.00 | 0.00 | 83 | 1012.7 |
| 20260506211604 | 50 | 359 | 0.0 | 0.0 | 0.00 | 0.00 | 0.00 | 82 | 1012.7 |
| 20260506211104 | 50 | 359 | 0.0 | 0.0 | 0.00 | 0.00 | 0.00 | 82 | 1012.6 |
| 20260506210604 | 50 | 359 | 0.0 | 0.0 | 0.00 | 0.00 | 0.00 | 82 | 1012.5 |
| 20260506210104 | 51 | 359 | 0.0 | 0.0 | 0.00 | 0.00 | 0.00 | 81 | 1012.5 |
| 20260506205604 | 51 | 359 | 0.0 | 0.0 | 0.00 | 0.00 | 0.00 | 80 | 1012.4 |
| 20260506205104 | 51 | 359 | 0.0 | 0.0 | 0.00 | 0.00 | 0.00 | 80 | 1012.5 |
| 20260506204604 | 52 | 359 | 0.0 | 0.0 | 0.00 | 0.00 | 0.00 | 79 | 1012.4 |
| 20260506203104 | 52 | 359 | 0.0 | 0.0 | 0.00 | 0.00 | 0.00 | 78 | 1012.4 |
| 20260506202604 | 52 | 359 | 0.0 | 0.0 | 0.00 | 0.00 | 0.00 | 78 | 1012.3 |
| 20260506202104 | 52 | 359 | 0.0 | 0.0 | 0.00 | 0.00 | 0.00 | 78 | 1012.3 |
| 20260506201604 | 52 | 359 | 0.0 | 0.0 | 0.00 | 0.00 | 0.00 | 78 | 1012.2 |
| 20260506201104 | 52 | 359 | 0.0 | 0.0 | 0.00 | 0.00 | 0.00 | 79 | 1012.2 |
| 20260506200104 | 53 | 359 | 0.0 | 0.0 | 0.00 | 0.00 | 0.00 | 77 | 1012.2 |
| 20260506195604 | 53 | 359 | 0.0 | 0.0 | 0.00 | 0.00 | 0.00 | 74 | 1012.2 |
| 20260506195104 | 53 | 7 | 0.0 | 0.0 | 0.00 | 0.00 | 0.00 | 74 | 1012.2 |
| 20260506193603 | 54 | 1 | 0.0 | 0.0 | 0.00 | 0.00 | 0.00 | 74 | 1012.3 |
| 20260506192604 | 54 | 2 | 0.0 | 0.0 | 0.00 | 0.00 | 0.00 | 73 | 1012.5 |
| 20260506191604 | 54 | 22 | 0.0 | 2.6 | 0.00 | 0.00 | 0.00 | 72 | 1012.6 |
| 20260506190604 | 54 | 2 | 0.9 | 2.6 | 0.00 | 0.00 | 0.00 | 72 | 1012.5 |
| 20260506190104 | 55 | 359 | 0.0 | 4.3 | 0.00 | 0.00 | 0.00 | 72 | 1012.4 |
| 20260506185604 | 54 | 359 | 0.0 | 2.6 | 0.00 | 0.00 | 0.00 | 72 | 1012.4 |
| 20260506185104 | 55 | 359 | 0.9 | 4.3 | 0.00 | 0.00 | 0.00 | 72 | 1012.4 |
| 20260506184104 | 54 | 4 | 2.6 | 7.8 | 0.00 | 0.00 | 0.00 | 73 | 1012.4 |
| 20260506183604 | 54 | 0 | 5.2 | 10.4 | 0.00 | 0.00 | 0.00 | 73 | 1012.3 |
| 20260506183104 | 54 | 6 | 6.1 | 11.3 | 0.00 | 0.00 | 0.00 | 74 | 1012.2 |
| 20260506182604 | 54 | 10 | 5.2 | 7.8 | 0.00 | 0.00 | 0.00 | 74 | 1012.1 |
| 20260506181604 | 55 | 137 | 0.0 | 4.3 | 0.00 | 0.00 | 0.00 | 75 | 1012.1 |
| 20260506181104 | 55 | 31 | 0.9 | 5.2 | 0.00 | 0.00 | 0.00 | 75 | 1011.9 |
| 20260506180604 | 55 | 113 | 0.0 | 0.9 | 0.00 | 0.00 | 0.00 | 75 | 1011.9 |
| 20260506180104 | 55 | 132 | 0.0 | 1.7 | 0.00 | 0.00 | 0.00 | 75 | 1011.9 |
| 20260506175604 | 55 | 121 | 0.9 | 2.6 | 0.00 | 0.00 | 0.00 | 75 | 1011.9 |
| 20260506175104 | 55 | 2 | 1.7 | 5.2 | 0.00 | 0.00 | 0.00 | 75 | 1012.0 |
| 20260506174604 | 55 | 359 | 0.9 | 4.3 | 0.00 | 0.00 | 0.00 | 75 | 1012.0 |
| 20260506174104 | 55 | 105 | 0.0 | 4.3 | 0.00 | 0.00 | 0.00 | 76 | 1012.0 |
| 20260506173604 | 55 | 134 | 0.9 | 2.6 | 0.00 | 0.00 | 0.00 | 76 | 1012.0 |
| 20260506173103 | 55 | 134 | 0.9 | 2.6 | 0.00 | 0.00 | 0.00 | 76 | 1012.0 |
| 20260506172604 | 55 | 114 | 0.9 | 4.3 | 0.00 | 0.00 | 0.00 | 76 | 1012.1 |
| 20260506172104 | 55 | 359 | 0.9 | 5.2 | 0.00 | 0.00 | 0.00 | 76 | 1012.1 |
| 20260506171104 | 55 | 88 | 1.7 | 5.2 | 0.00 | 0.00 | 0.00 | 78 | 1012.2 |
| 20260506170604 | 55 | 83 | 1.7 | 5.2 | 0.00 | 0.00 | 0.00 | 78 | 1012.3 |
| 20260506165104 | 55 | 359 | 1.7 | 4.3 | 0.00 | 0.00 | 0.00 | 79 | 1012.5 |
| 20260506164105 | 55 | 359 | 1.7 | 5.2 | 0.00 | 0.00 | 0.00 | 80 | 1012.4 |
| 20260506163605 | 55 | 1 | 1.7 | 4.3 | 0.00 | 0.00 | 0.00 | 81 | 1012.4 |
| 20260506162605 | 55 | 97 | 1.7 | 7.0 | 0.00 | 0.00 | 0.00 | 81 | 1012.5 |
| 20260506162105 | 55 | 14 | 0.0 | 8.7 | 0.00 | 0.00 | 0.00 | 81 | 1012.6 |
| 20260506161605 | 55 | 119 | 0.0 | 4.3 | 0.00 | 0.00 | 0.00 | 82 | 1012.7 |
| 20260506161105 | 55 | 61 | 0.0 | 4.3 | 0.00 | 0.00 | 0.00 | 82 | 1012.8 |
| 20260506160605 | 55 | 136 | 0.0 | 0.0 | 0.00 | 0.00 | 0.00 | 82 | 1012.8 |
| 20260506160105 | 56 | 109 | 0.9 | 2.6 | 0.00 | 0.00 | 0.00 | 82 | 1012.9 |
| 20260506155605 | 56 | 70 | 1.7 | 5.2 | 0.00 | 0.00 | 0.00 | 83 | 1012.9 |
| 20260506154605 | 56 | 359 | 3.5 | 5.2 | 0.00 | 0.00 | 0.00 | 83 | 1013.0 |
| 20260506154105 | 56 | 359 | 4.3 | 6.1 | 0.00 | 0.00 | 0.00 | 83 | 1013.0 |
| 20260506153605 | 56 | 60 | 2.6 | 4.3 | 0.00 | 0.00 | 0.00 | 83 | 1013.0 |
| 20260506153105 | 56 | 101 | 1.7 | 2.6 | 0.00 | 0.00 | 0.00 | 84 | 1013.0 |
| 20260506152605 | 56 | 43 | 2.6 | 4.3 | 0.00 | 0.00 | 0.00 | 84 | 1013.0 |
| 20260506152105 | 57 | 359 | 2.6 | 6.1 | 0.00 | 0.00 | 0.00 | 84 | 1013.0 |
| 20260506151605 | 57 | 0 | 2.6 | 5.2 | 0.00 | 0.00 | 0.00 | 85 | 1013.0 |
| 20260506151105 | 57 | 359 | 0.9 | 2.6 | 0.00 | 0.00 | 0.00 | 86 | 1013.1 |
| 20260506150605 | 57 | 359 | 0.9 | 2.6 | 0.00 | 0.00 | 0.00 | 86 | 1013.2 |
| 20260506150105 | 57 | 359 | 0.0 | 4.3 | 0.00 | 0.00 | 0.00 | 87 | 1013.2 |
| 20260506145605 | 57 | 359 | 1.7 | 4.3 | 0.00 | 0.00 | 0.00 | 87 | 1013.2 |
| 20260506145105 | 57 | 359 | 2.6 | 4.3 | 0.00 | 0.00 | 0.00 | 88 | 1013.2 |
| 20260506144105 | 57 | 359 | 1.7 | 2.6 | 0.00 | 0.00 | 0.00 | 90 | 1013.2 |
| 20260506143605 | 58 | 359 | 2.6 | 4.3 | 0.00 | 0.00 | 0.00 | 90 | 1013.3 |
| 20260506142604 | 58 | 359 | 1.7 | 4.3 | 0.00 | 0.00 | 0.00 | 91 | 1013.3 |
| 20260506141105 | 58 | 359 | 0.9 | 2.6 | 0.00 | 0.00 | 0.00 | 92 | 1013.5 |
| 20260506140605 | 58 | 359 | 0.0 | 1.7 | 0.00 | 0.00 | 0.00 | 92 | 1013.6 |
| 20260506135605 | 58 | 359 | 0.0 | 0.9 | 0.00 | 0.00 | 0.00 | 92 | 1013.6 |
| 20260506135105 | 59 | 359 | 0.0 | 2.6 | 0.00 | 0.00 | 0.00 | 92 | 1013.5 |
| 20260506134605 | 59 | 359 | 0.0 | 2.6 | 0.00 | 0.00 | 0.00 | 92 | 1013.4 |
| 20260506134104 | 59 | 359 | 0.0 | 1.7 | 0.00 | 0.00 | 0.00 | 92 | 1013.5 |
| 20260506133605 | 59 | 359 | 0.9 | 2.6 | 0.00 | 0.00 | 0.00 | 92 | 1013.5 |
| 20260506133105 | 59 | 359 | 0.0 | 0.9 | 0.00 | 0.00 | 0.00 | 92 | 1013.5 |
| 20260506132606 | 58 | 359 | 0.0 | 0.0 | 0.00 | 0.00 | 0.00 | 91 | 1013.6 |
| 20260506132105 | 59 | 359 | 0.0 | 0.0 | 0.00 | 0.00 | 0.00 | 91 | 1013.7 |
| 20260506131606 | 59 | 359 | 0.0 | 0.0 | 0.00 | 0.00 | 0.00 | 92 | 1013.6 |
| 20260506131106 | 59 | 359 | 0.0 | 0.9 | 0.00 | 0.00 | 0.00 | 92 | 1013.7 |
| 20260506130605 | 59 | 359 | 0.0 | 0.0 | 0.00 | 0.00 | 0.00 | 92 | 1013.7 |
| 20260506130105 | 59 | 359 | 0.0 | 0.0 | 0.00 | 0.00 | 0.00 | 92 | 1013.8 |
| 20260506125605 | 59 | 359 | 0.0 | 0.0 | 0.00 | 0.00 | 0.00 | 92 | 1013.9 |
| 20260506125105 | 59 | 359 | 0.0 | 0.0 | 0.00 | 0.00 | 0.00 | 92 | 1014.0 |
| 20260506124605 | 59 | 359 | 0.0 | 0.0 | 0.00 | 0.00 | 0.00 | 92 | 1014.1 |
| 20260506124105 | 59 | 359 | 0.0 | 0.0 | 0.00 | 0.00 | 0.00 | 92 | 1014.1 |
| 20260506123605 | 59 | 359 | 0.0 | 1.7 | 0.00 | 0.00 | 0.00 | 92 | 1014.2 |
| 20260506123105 | 59 | 359 | 0.0 | 0.0 | 0.00 | 0.00 | 0.00 | 92 | 1014.3 |
| 20260506122605 | 59 | 359 | 0.0 | 0.9 | 0.00 | 0.00 | 0.00 | 92 | 1014.4 |
| 20260506122105 | 59 | 359 | 0.0 | 2.6 | 0.00 | 0.00 | 0.00 | 92 | 1014.4 |
| 20260506121605 | 58 | 359 | 0.0 | 2.6 | 0.00 | 0.00 | 0.00 | 92 | 1014.5 |
| 20260506121105 | 58 | 121 | 0.0 | 0.0 | 0.00 | 0.00 | 0.00 | 91 | 1014.6 |
| 20260506120605 | 58 | 112 | 0.0 | 0.0 | 0.00 | 0.00 | 0.00 | 91 | 1014.6 |
| 20260506120105 | 58 | 112 | 0.0 | 0.9 | 0.00 | 0.00 | 0.00 | 91 | 1014.6 |
| 20260506114605 | 58 | 65 | 0.0 | 0.0 | 0.00 | 0.00 | 0.00 | 90 | 1014.8 |
| 20260506114105 | 58 | 65 | 0.0 | 0.0 | 0.00 | 0.00 | 0.00 | 89 | 1014.8 |
| 20260506113605 | 58 | 74 | 0.0 | 0.0 | 0.00 | 0.00 | 0.00 | 89 | 1015.0 |